Time;durP1;ratioP1;P1;durP2;ratioP2;P2;SDS_P1;SDS_P2;PMS_P1;PMS_P2;Temp;Humidity;BMP_temperature;BMP_pressure;BME280_temperature;BME280_humidity;BME280_pressure;Samples;Min_cycle;Max_cycle;Signal;HPM_P1;HPM_P2
2022/03/04 00:01:46;;;;;;;25.93;15.07;;;;;;;-145.18;100.00;47603.97;4930527;29;20039;-62
2022/03/04 00:04:13;;;;;;;28.20;15.50;;;;;;;-145.18;100.00;47617.66;4930956;29;20071;-62
2022/03/04 00:06:39;;;;;;;28.13;15.20;;;;;;;-145.18;100.00;47623.50;4930482;29;20107;-62
2022/03/04 00:09:05;;;;;;;26.57;14.87;;;;;;;-145.18;100.00;47635.22;4931787;29;20032;-62
2022/03/04 00:11:30;;;;;;;29.03;14.57;;;;;;;-145.18;100.00;47627.41;4930197;29;20099;-62
2022/03/04 00:13:56;;;;;;;31.27;14.83;;;;;;;-145.18;100.00;47607.88;4930716;29;20040;-62
2022/03/04 00:16:21;;;;;;;26.80;15.07;;;;;;;-145.18;100.00;47619.59;4930235;29;20067;-62
2022/03/04 00:19:06;;;;;;;27.23;13.93;;;;;;;-145.18;100.00;47631.31;4930911;29;20043;-62
2022/03/04 00:21:42;;;;;;;30.42;14.82;;;;;;;-145.18;100.00;47613.75;4929954;29;20127;-62
2022/03/04 00:24:09;;;;;;;27.08;14.18;;;;;;;-145.18;100.00;47600.06;4930822;29;20036;-62
2022/03/04 00:26:35;;;;;;;27.48;15.05;;;;;;;-145.18;100.00;47611.78;4930189;29;20115;-62
2022/03/04 00:29:01;;;;;;;29.45;15.18;;;;;;;-145.18;100.00;47639.13;4930742;29;20457;-62
2022/03/04 00:31:26;;;;;;;25.57;14.67;;;;;;;-145.18;100.00;47633.28;4912894;29;20082;-62
2022/03/04 00:33:52;;;;;;;27.20;14.83;;;;;;;-145.18;100.00;47633.28;4930595;29;20075;-62
2022/03/04 00:36:22;;;;;;;28.03;15.00;;;;;;;-145.18;100.00;47645.00;4929889;29;20047;-62
2022/03/04 00:38:48;;;;;;;30.70;15.43;;;;;;;-145.18;100.00;47658.69;4913754;29;20042;-62
2022/03/04 00:41:13;;;;;;;26.57;14.60;;;;;;;-145.18;100.00;47629.38;4930759;29;20114;-62
2022/03/04 00:43:38;;;;;;;25.93;14.17;;;;;;;-145.18;100.00;47654.78;4929484;29;20282;-62
2022/03/04 00:46:05;;;;;;;24.83;14.30;;;;;;;-145.18;100.00;47646.97;4929951;29;20043;-62
2022/03/04 00:48:30;;;;;;;25.23;13.75;;;;;;;-145.18;100.00;47662.59;4913367;29;20140;-62
2022/03/04 00:50:56;;;;;;;28.77;15.67;;;;;;;-145.18;100.00;47637.19;4930321;29;20048;-62
2022/03/04 00:53:21;;;;;;;28.47;14.10;;;;;;;-145.18;100.00;47654.78;4930201;29;20520;-62
2022/03/04 00:55:46;;;;;;;27.50;14.97;;;;;;;-145.18;100.00;47687.97;4931020;29;20050;-62
2022/03/04 00:58:12;;;;;;;27.70;14.53;;;;;;;-145.18;100.00;47674.31;4929939;29;20059;-62
2022/03/04 01:00:37;;;;;;;26.00;14.50;;;;;;;-145.18;100.00;47672.34;4929993;29;20047;-62
2022/03/04 01:03:03;;;;;;;28.77;14.53;;;;;;;-145.18;100.00;47664.53;4929748;29;20040;-62
2022/03/04 01:05:30;;;;;;;30.23;14.60;;;;;;;-145.18;100.00;47648.91;4930261;29;20048;-62
2022/03/04 01:07:55;;;;;;;27.65;14.85;;;;;;;-145.18;100.00;47643.03;4929961;29;20114;-62
2022/03/04 01:10:21;;;;;;;27.57;14.50;;;;;;;-145.18;100.00;47650.88;4930726;29;20492;-62
2022/03/04 01:12:47;;;;;;;26.00;14.00;;;;;;;-145.18;100.00;47660.63;4929797;29;20401;-62
2022/03/04 01:15:12;;;;;;;28.43;14.90;;;;;;;-145.18;100.00;47666.50;4930317;29;20047;-62
2022/03/04 01:17:38;;;;;;;32.80;14.63;;;;;;;-145.18;100.00;47650.88;4929459;29;20557;-62
2022/03/04 01:20:05;;;;;;;29.03;15.07;;;;;;;-145.18;100.00;47672.34;4929954;29;20098;-62
2022/03/04 01:22:31;;;;;;;27.75;14.93;;;;;;;-145.18;100.00;47682.13;4929613;29;20039;-62
2022/03/04 01:24:57;;;;;;;25.43;15.00;;;;;;;-145.18;100.00;47687.97;4930822;29;20115;-62
2022/03/04 01:27:23;;;;;;;31.97;14.27;;;;;;;-145.18;100.00;47682.13;4929571;29;20083;-62
2022/03/04 01:29:48;;;;;;;33.37;14.43;;;;;;;-145.18;100.00;47695.81;4930051;29;20523;-62
2022/03/04 01:32:13;;;;;;;25.70;14.00;;;;;;;-145.18;100.00;47678.22;4929390;29;20071;-62
2022/03/04 01:34:39;;;;;;;28.67;14.17;;;;;;;-145.18;100.00;47695.81;4912973;29;20036;-62
2022/03/04 01:37:05;;;;;;;28.17;14.00;;;;;;;-145.18;100.00;47713.38;4929612;29;20044;-62
2022/03/04 01:39:30;;;;;;;30.00;14.77;;;;;;;-145.18;100.00;47711.44;4913484;29;20036;-62
2022/03/04 01:41:56;;;;;;;29.47;14.77;;;;;;;-145.18;100.00;47684.06;4929567;29;20063;-62
2022/03/04 01:44:21;;;;;;;27.57;12.87;;;;;;;-145.18;100.00;47707.53;4929743;29;20493;-62
2022/03/04 01:46:47;;;;;;;27.97;14.10;;;;;;;-145.18;100.00;47719.25;4929567;29;20699;-61
2022/03/04 01:49:14;;;;;;;27.73;14.57;;;;;;;-145.18;100.00;47727.06;4929840;29;20174;-62
2022/03/04 01:51:39;;;;;;;28.02;14.70;;;;;;;-145.18;100.00;47717.28;4914952;29;20043;-62
2022/03/04 01:54:05;;;;;;;26.40;14.67;;;;;;;-145.18;100.00;47697.75;4934377;29;20066;-62
2022/03/04 01:56:31;;;;;;;28.57;14.27;;;;;;;-145.18;100.00;47701.66;4932899;29;20085;-62
2022/03/04 01:58:56;;;;;;;29.13;13.90;;;;;;;-145.18;100.00;47711.44;4933585;29;20051;-62
2022/03/04 02:01:22;;;;;;;29.63;15.13;;;;;;;-145.18;100.00;47645.00;4932646;29;20369;-62
2022/03/04 02:03:48;;;;;;;27.83;14.57;;;;;;;-145.18;100.00;47551.22;4933354;29;20039;-62
2022/03/04 02:06:13;;;;;;;28.03;15.30;;;;;;;-145.18;100.00;47219.09;4932723;29;20060;-62
2022/03/04 02:08:38;;;;;;;26.77;13.97;;;;;;;-145.18;100.00;46961.22;4933701;29;20519;-62
2022/03/04 02:11:04;;;;;;;36.53;16.80;;;;;;;-145.18;100.00;46920.19;4915992;29;20043;-62
2022/03/04 02:13:30;;;;;;;34.27;16.23;;;;;;;-145.18;100.00;46888.94;4932912;29;20035;-62
2022/03/04 02:15:55;;;;;;;32.13;17.40;;;;;;;-145.18;100.00;46877.22;4933334;29;20043;-62
2022/03/04 02:18:21;;;;;;;35.10;17.73;;;;;;;-145.18;100.00;46863.53;4915551;29;20087;-62
2022/03/04 02:20:48;;;;;;;31.57;16.77;;;;;;;-145.18;100.00;46830.34;4933021;29;20068;-62
2022/03/04 02:23:15;;;;;;;32.75;17.17;;;;;;;-145.18;100.00;46836.19;4915771;29;20048;-62
2022/03/04 02:25:43;;;;;;;34.65;17.70;;;;;;;-145.18;100.00;46828.38;4933304;29;20047;-62
2022/03/04 02:28:09;;;;;;;34.67;17.95;;;;;;;-145.18;100.00;46806.91;4932575;29;20067;-61
2022/03/04 02:30:36;;;;;;;32.77;17.37;;;;;;;-145.18;100.00;46771.75;4932754;29;20137;-62
2022/03/04 02:33:03;;;;;;;32.70;17.77;;;;;;;-145.18;100.00;46789.31;4932372;29;20043;-62
2022/03/04 02:35:30;;;;;;;32.95;17.88;;;;;;;-145.18;100.00;46773.69;4932377;29;20415;-62
2022/03/04 02:37:55;;;;;;;38.17;20.20;;;;;;;-145.18;100.00;46760.00;4932171;29;20028;-62
2022/03/04 02:40:22;;;;;;;35.13;17.73;;;;;;;-145.18;100.00;46734.63;4932430;29;20516;-62
2022/03/04 02:42:47;;;;;;;36.15;19.02;;;;;;;-145.18;100.00;46724.84;4932182;29;20036;-62
2022/03/04 02:45:12;;;;;;;34.60;18.40;;;;;;;-145.18;100.00;46734.63;4932676;29;20039;-62
2022/03/04 02:47:38;;;;;;;35.10;18.13;;;;;;;-145.18;100.00;46719.00;4914649;29;20052;-61
2022/03/04 02:50:04;;;;;;;34.93;17.80;;;;;;;-145.18;100.00;46773.69;4932522;29;20039;-62
2022/03/04 02:52:29;;;;;;;37.60;18.30;;;;;;;-145.18;100.00;46761.97;4931927;29;20036;-62
2022/03/04 02:54:54;;;;;;;41.20;18.57;;;;;;;-145.18;100.00;46740.47;4932119;29;20047;-62
2022/03/04 02:57:20;;;;;;;37.77;17.57;;;;;;;-145.18;100.00;46771.75;4932434;29;20043;-62
2022/03/04 02:59:45;;;;;;;33.57;17.13;;;;;;;-145.18;100.00;46795.19;4932231;29;20062;-62
2022/03/04 03:02:11;;;;;;;36.87;17.93;;;;;;;-145.18;100.00;46787.38;5236744;23;20067;-62
2022/03/04 03:04:36;;;;;;;34.83;17.80;;;;;;;-145.18;100.00;46773.69;4932410;29;20047;-62
2022/03/04 03:07:02;;;;;;;30.77;16.33;;;;;;;-145.18;100.00;46760.00;4932367;29;20134;-62
2022/03/04 03:09:27;;;;;;;34.97;17.40;;;;;;;-145.18;100.00;46750.25;4931719;29;20070;-62
2022/03/04 03:11:53;;;;;;;34.07;17.07;;;;;;;-145.18;100.00;46748.28;4930493;29;20130;-62
2022/03/04 03:14:18;;;;;;;34.93;17.73;;;;;;;-145.18;100.00;46750.25;4931875;29;20035;-62
2022/03/04 03:16:43;;;;;;;37.33;17.27;;;;;;;-145.18;100.00;46722.91;4931814;29;20063;-62
2022/03/04 03:19:09;;;;;;;35.53;17.20;;;;;;;-145.18;100.00;46736.56;4932444;29;20044;-62
2022/03/04 03:21:34;;;;;;;33.63;16.97;;;;;;;-145.18;100.00;46728.75;4931932;29;20035;-62
2022/03/04 03:24:00;;;;;;;33.63;17.47;;;;;;;-145.18;100.00;46715.09;4931392;29;20496;-62
2022/03/04 03:26:25;;;;;;;35.83;18.17;;;;;;;-145.18;100.00;46734.63;4932153;29;20039;-62
2022/03/04 03:28:50;;;;;;;32.10;16.10;;;;;;;-145.18;100.00;46752.19;4931228;29;20444;-62
2022/03/04 03:31:16;;;;;;;35.77;18.50;;;;;;;-145.18;100.00;46736.56;4931770;29;20131;-62
2022/03/04 03:33:43;;;;;;;33.80;16.73;;;;;;;-145.18;100.00;46752.19;4931834;29;20047;-61
2022/03/04 03:36:08;;;;;;;33.83;17.13;;;;;;;-145.18;100.00;46744.38;4931907;29;20054;-62
2022/03/04 03:38:34;;;;;;;36.77;17.53;;;;;;;-145.18;100.00;46730.72;4931268;29;20038;-62
2022/03/04 03:40:59;;;;;;;37.13;16.40;;;;;;;-145.18;100.00;46713.13;4931497;29;20039;-62
2022/03/04 03:43:25;;;;;;;35.10;17.17;;;;;;;-145.18;100.00;46697.50;4931215;29;20040;-62
2022/03/04 03:45:50;;;;;;;33.77;17.67;;;;;;;-145.18;100.00;46691.66;4931181;29;20043;-62
2022/03/04 03:48:16;;;;;;;37.10;17.17;;;;;;;-145.18;100.00;46711.19;4914579;29;20060;-62
2022/03/04 03:50:41;;;;;;;36.13;17.83;;;;;;;-145.18;100.00;46685.78;4931193;29;20047;-62
2022/03/04 03:53:08;;;;;;;31.90;17.43;;;;;;;-145.18;100.00;46693.59;4930881;29;20479;-62
2022/03/04 03:55:34;;;;;;;33.75;17.02;;;;;;;-145.18;100.00;46683.84;4931160;29;20091;-62
2022/03/04 03:57:59;;;;;;;37.97;18.57;;;;;;;-145.18;100.00;46677.97;4930705;29;20444;-62
2022/03/04 04:00:25;;;;;;;42.53;19.20;;;;;;;-145.18;100.00;46668.22;4931190;29;20501;-62
2022/03/04 04:02:51;;;;;;;39.88;19.13;;;;;;;-145.18;100.00;46676.03;4916476;29;20052;-63
2022/03/04 04:05:17;;;;;;;43.93;18.77;;;;;;;-145.18;100.00;46660.41;4912916;29;20103;-62
2022/03/04 04:07:42;;;;;;;43.00;19.55;;;;;;;-145.18;100.00;46660.41;4911474;29;20442;-62
2022/03/04 04:10:08;;;;;;;40.87;21.13;;;;;;;-145.18;100.00;46642.81;4912034;29;20040;-62
2022/03/04 04:12:34;;;;;;;39.58;19.45;;;;;;;-145.18;100.00;46636.94;4894273;29;20119;-62
2022/03/04 04:14:59;;;;;;;38.07;18.30;;;;;;;-145.18;100.00;46644.78;4911250;29;20131;-62
2022/03/04 04:17:25;;;;;;;39.67;18.20;;;;;;;-145.18;100.00;46636.94;4894825;29;20343;-63
2022/03/04 04:19:50;;;;;;;40.27;20.57;;;;;;;-145.18;100.00;46644.78;4912438;29;20048;-61
2022/03/04 04:22:16;;;;;;;38.83;19.73;;;;;;;-145.18;100.00;46644.78;4911421;29;20095;-62
2022/03/04 04:24:41;;;;;;;42.80;20.20;;;;;;;-145.18;100.00;46636.94;4911620;29;20123;-62
2022/03/04 04:27:07;;;;;;;38.63;19.47;;;;;;;-145.18;100.00;46633.06;4911757;29;20051;-62
2022/03/04 04:29:32;;;;;;;39.60;19.23;;;;;;;-145.18;100.00;46648.69;4911342;29;20505;-62
2022/03/04 04:31:57;;;;;;;40.47;18.77;;;;;;;-145.18;100.00;46619.38;4911512;29;20055;-62
2022/03/04 04:34:23;;;;;;;42.77;19.80;;;;;;;-145.18;100.00;46633.06;4911878;29;20588;-62
2022/03/04 04:36:49;;;;;;;33.00;16.93;;;;;;;-145.18;100.00;46638.91;4911309;29;20059;-62
2022/03/04 04:39:14;;;;;;;42.73;20.07;;;;;;;-145.18;100.00;46633.06;4911186;29;20544;-62
2022/03/04 04:41:39;;;;;;;39.30;19.27;;;;;;;-145.18;100.00;46640.88;4894605;29;20043;-62
2022/03/04 04:44:05;;;;;;;34.20;17.90;;;;;;;-145.18;100.00;46646.72;4909866;29;20044;-62
2022/03/04 04:46:30;;;;;;;39.03;19.43;;;;;;;-145.18;100.00;46650.63;4912231;29;20051;-62
2022/03/04 04:48:56;;;;;;;39.97;19.63;;;;;;;-145.18;100.00;46648.69;4910953;29;20039;-61
2022/03/04 04:51:21;;;;;;;40.93;19.43;;;;;;;-145.18;100.00;46674.06;4911588;29;20548;-62
2022/03/04 04:53:46;;;;;;;36.07;18.00;;;;;;;-145.18;100.00;46670.16;4910750;29;20043;-62
2022/03/04 04:56:12;;;;;;;37.83;19.10;;;;;;;-145.18;100.00;46674.06;4911518;29;20044;-62
2022/03/04 04:58:37;;;;;;;37.73;18.23;;;;;;;-145.18;100.00;46703.38;4911086;29;20051;-62
2022/03/04 05:01:03;;;;;;;35.90;17.47;;;;;;;-145.18;100.00;46697.50;4911973;29;20475;-62
2022/03/04 05:03:29;;;;;;;37.27;19.30;;;;;;;-145.18;100.00;46728.75;4947039;28;20507;-61
2022/03/04 05:05:55;;;;;;;36.50;18.37;;;;;;;-145.18;100.00;46724.84;4948865;28;20035;-62
2022/03/04 05:08:21;;;;;;;39.33;18.80;;;;;;;-145.18;100.00;46738.53;4948969;28;20039;-62
2022/03/04 05:10:47;;;;;;;42.60;18.20;;;;;;;-145.18;100.00;46734.63;4949441;28;20518;-62
2022/03/04 05:13:13;;;;;;;36.73;17.53;;;;;;;-145.18;100.00;46730.72;4948915;28;20309;-62
2022/03/04 05:15:39;;;;;;;37.25;19.35;;;;;;;-145.18;100.00;46734.63;4949222;28;20103;-62
2022/03/04 05:18:06;;;;;;;37.42;18.10;;;;;;;-145.18;100.00;46773.69;4949253;28;20035;-62
2022/03/04 05:20:31;;;;;;;35.00;17.83;;;;;;;-145.18;100.00;46761.97;4949081;28;20054;-62
2022/03/04 05:22:56;;;;;;;37.50;18.57;;;;;;;-145.18;100.00;46761.97;4948813;28;20043;-62
2022/03/04 05:25:22;;;;;;;36.00;18.27;;;;;;;-145.18;100.00;46767.84;4951201;28;20140;-62
2022/03/04 05:27:48;;;;;;;36.50;18.27;;;;;;;-145.18;100.00;46787.38;4952532;28;20036;-63
2022/03/04 05:30:13;;;;;;;35.93;17.77;;;;;;;-145.18;100.00;46801.03;4953158;28;20256;-63
2022/03/04 05:32:39;;;;;;;40.80;18.90;;;;;;;-145.18;100.00;46801.03;4953444;28;20039;-62
2022/03/04 05:35:05;;;;;;;36.07;18.40;;;;;;;-145.18;100.00;46806.91;4952314;28;20050;-62
2022/03/04 05:37:31;;;;;;;35.25;18.90;;;;;;;-145.18;100.00;46773.69;4952592;28;20047;-62
2022/03/04 05:39:56;;;;;;;37.53;18.23;;;;;;;-145.18;100.00;46767.84;4952505;28;20027;-62
2022/03/04 05:42:22;;;;;;;39.83;18.57;;;;;;;-145.18;100.00;46761.97;4952741;28;20050;-62
2022/03/04 05:44:47;;;;;;;40.30;18.67;;;;;;;-145.18;100.00;46752.19;4952277;28;20126;-62
2022/03/04 05:47:12;;;;;;;37.37;17.67;;;;;;;-145.18;100.00;46750.25;4953380;28;20051;-62
2022/03/04 05:49:38;;;;;;;36.27;18.47;;;;;;;-145.18;100.00;46765.88;4952218;28;20142;-62
2022/03/04 05:52:04;;;;;;;36.10;17.87;;;;;;;-145.18;100.00;46736.56;4935672;28;20035;-62
2022/03/04 05:54:30;;;;;;;39.08;18.77;;;;;;;-145.18;100.00;46730.72;4952319;28;20039;-62
2022/03/04 05:56:56;;;;;;;39.97;19.70;;;;;;;-145.18;100.00;46691.66;4952471;28;20070;-62
2022/03/04 05:59:21;;;;;;;38.53;19.13;;;;;;;-145.18;100.00;46687.75;4952139;28;20046;-62
2022/03/04 06:01:46;;;;;;;40.50;18.60;;;;;;;-145.18;100.00;46689.69;4952819;28;20496;-62
2022/03/04 06:04:12;;;;;;;39.20;18.77;;;;;;;-145.18;100.00;46685.78;4952022;28;20048;-62
2022/03/04 06:06:38;;;;;;;39.50;18.95;;;;;;;-145.18;100.00;46664.31;4952557;28;20412;-62
2022/03/04 06:09:03;;;;;;;41.37;18.87;;;;;;;-145.18;100.00;46691.66;4951802;28;20035;-62
2022/03/04 06:11:29;;;;;;;39.67;19.63;;;;;;;-145.18;100.00;46695.56;4952271;28;20054;-62
2022/03/04 06:13:54;;;;;;;40.80;19.63;;;;;;;-145.18;100.00;46681.88;4951537;28;20604;-62
2022/03/04 06:16:20;;;;;;;37.43;18.27;;;;;;;-145.18;100.00;46687.75;4953020;28;20035;-62
2022/03/04 06:18:46;;;;;;;42.37;20.27;;;;;;;-145.18;100.00;46679.94;4951591;28;20050;-62
2022/03/04 06:21:11;;;;;;;40.17;18.07;;;;;;;-145.18;100.00;46689.69;4952010;28;20043;-62
2022/03/04 06:23:37;;;;;;;40.97;20.03;;;;;;;-145.18;100.00;46683.84;4951491;28;20054;-62
2022/03/04 06:26:03;;;;;;;38.20;19.47;;;;;;;-145.18;100.00;46676.03;4951580;28;20113;-62
2022/03/04 06:28:28;;;;;;;43.30;19.73;;;;;;;-145.18;100.00;46677.97;4951614;28;20050;-62
2022/03/04 06:30:54;;;;;;;45.60;19.20;;;;;;;-145.18;100.00;46693.59;4952387;28;20129;-62
2022/03/04 06:33:32;;;;;;;43.90;19.87;;;;;;;-145.18;100.00;46674.06;4951317;28;20089;-62
2022/03/04 06:36:06;;;;;;;40.42;19.88;;;;;;;-145.18;100.00;46672.13;4951170;28;20054;-62
2022/03/04 06:38:35;;;;;;;50.30;20.65;;;;;;;-145.18;100.00;46662.34;4951735;28;20035;-62
2022/03/04 06:41:01;;;;;;;40.83;20.38;;;;;;;-145.18;100.00;46674.06;4951597;28;20412;-62
2022/03/04 06:43:27;;;;;;;38.67;20.35;;;;;;;-145.18;100.00;46677.97;4951225;28;20385;-62
2022/03/04 06:45:53;;;;;;;43.23;21.13;;;;;;;-145.18;100.00;46689.69;4951482;28;20038;-62
2022/03/04 06:48:18;;;;;;;46.00;21.73;;;;;;;-145.18;100.00;46707.28;4951368;28;20503;-62
2022/03/04 06:50:45;;;;;;;41.60;20.00;;;;;;;-145.18;100.00;46715.09;4952000;28;20031;-62
2022/03/04 06:53:11;;;;;;;41.38;19.88;;;;;;;-145.18;100.00;46711.19;4934720;29;20098;-62
2022/03/04 06:55:36;;;;;;;37.23;19.47;;;;;;;-145.18;100.00;46734.63;4951588;28;20035;-62
2022/03/04 06:58:02;;;;;;;45.70;21.50;;;;;;;-145.18;100.00;46715.09;4951103;28;20054;-62
2022/03/04 07:00:27;;;;;;;39.90;19.13;;;;;;;-145.18;100.00;46734.63;4951385;28;20039;-62
2022/03/04 07:02:53;;;;;;;42.83;20.63;;;;;;;-145.18;100.00;46740.47;4934545;28;20292;-62
2022/03/04 07:05:21;;;;;;;39.15;19.67;;;;;;;-145.18;100.00;46754.16;4951582;28;20062;-62
2022/03/04 07:07:51;;;;;;;41.33;20.52;;;;;;;-145.18;100.00;46740.47;4950377;28;20035;-62
2022/03/04 07:10:17;;;;;;;43.72;20.70;;;;;;;-145.18;100.00;46758.06;4950361;28;20047;-62
2022/03/04 07:12:43;;;;;;;45.83;20.83;;;;;;;-145.18;100.00;46761.97;4951652;28;20031;-62
2022/03/04 07:15:09;;;;;;;46.00;20.93;;;;;;;-145.18;100.00;46767.84;4950817;28;20485;-62
2022/03/04 07:17:35;;;;;;;40.28;20.98;;;;;;;-145.18;100.00;46781.50;4951062;28;20044;-62
2022/03/04 07:20:00;;;;;;;41.87;21.60;;;;;;;-145.18;100.00;46779.56;4950694;28;20031;-62
2022/03/04 07:22:26;;;;;;;37.87;20.13;;;;;;;-145.18;100.00;46806.91;4950922;28;20542;-62
2022/03/04 07:24:51;;;;;;;43.87;20.37;;;;;;;-145.18;100.00;46793.22;4950272;28;20043;-62
2022/03/04 07:27:16;;;;;;;44.50;20.77;;;;;;;-145.18;100.00;46824.47;4951772;28;20515;-62
2022/03/04 07:29:42;;;;;;;44.83;21.07;;;;;;;-145.18;100.00;46840.09;4950547;28;20043;-62
2022/03/04 07:32:07;;;;;;;40.83;19.20;;;;;;;-145.18;100.00;46842.06;4950673;28;20046;-62
2022/03/04 07:34:33;;;;;;;43.63;21.07;;;;;;;-145.18;100.00;46847.91;4950437;28;20039;-62
2022/03/04 07:36:58;;;;;;;46.10;20.57;;;;;;;-145.18;100.00;46857.69;4950620;28;20039;-62
2022/03/04 07:39:23;;;;;;;46.27;19.83;;;;;;;-145.18;100.00;46855.72;4950479;28;20143;-61
2022/03/04 07:41:50;;;;;;;38.40;18.13;;;;;;;-145.18;100.00;46865.50;4951265;28;20050;-62
2022/03/04 07:44:16;;;;;;;45.25;20.85;;;;;;;-145.18;100.00;46840.09;4950172;28;20604;-62
2022/03/04 07:46:41;;;;;;;37.23;18.23;;;;;;;-145.18;100.00;46867.44;4950538;28;20118;-62
2022/03/04 07:49:06;;;;;;;42.83;18.57;;;;;;;-145.18;100.00;46863.53;4950040;28;20396;-62
2022/03/04 07:51:33;;;;;;;37.37;19.67;;;;;;;-145.18;100.00;46883.09;4933267;28;20500;-62
2022/03/04 07:53:59;;;;;;;49.30;20.63;;;;;;;-145.18;100.00;46881.13;4949720;28;20048;-62
2022/03/04 07:56:24;;;;;;;41.33;20.77;;;;;;;-145.18;100.00;46873.31;4951190;28;20559;-62
2022/03/04 07:58:49;;;;;;;44.27;20.37;;;;;;;-145.18;100.00;46926.06;4949964;28;20039;-62
2022/03/04 08:01:15;;;;;;;41.97;19.40;;;;;;;-145.18;100.00;47013.97;4950259;28;20595;-62
2022/03/04 08:03:42;;;;;;;48.47;21.47;;;;;;;-145.18;100.00;47066.72;4949533;28;20046;-62
2022/03/04 08:06:08;;;;;;;43.85;19.23;;;;;;;-145.18;100.00;47070.63;4950255;28;20067;-62
2022/03/04 08:08:34;;;;;;;45.80;20.43;;;;;;;-145.18;100.00;47199.56;4949800;28;20070;-62
2022/03/04 08:11:00;;;;;;;41.20;20.10;;;;;;;-145.18;100.00;47277.69;4950616;28;20047;-62
2022/03/04 08:13:26;;;;;;;44.37;21.47;;;;;;;-145.18;100.00;47166.34;4949817;28;20136;-62
2022/03/04 08:15:51;;;;;;;35.77;18.60;;;;;;;-145.18;100.00;47486.75;4949793;28;20050;-62
2022/03/04 08:18:17;;;;;;;43.23;19.63;;;;;;;-145.18;100.00;47449.63;4949820;28;20047;-62
2022/03/04 08:20:43;;;;;;;39.53;20.85;;;;;;;-145.18;100.00;47426.19;4949983;28;20050;-62
2022/03/04 08:23:10;;;;;;;40.13;19.07;;;;;;;-145.18;100.00;47590.28;4949454;28;20039;-62
2022/03/04 08:25:36;;;;;;;37.72;18.85;;;;;;;-145.18;100.00;47494.56;4950069;28;20071;-62
2022/03/04 08:28:01;;;;;;;40.07;19.17;;;;;;;-145.18;100.00;47594.19;4949955;28;20070;-62
2022/03/04 08:30:26;;;;;;;43.87;20.37;;;;;;;-145.18;100.00;47629.38;4949525;28;20040;-62
2022/03/04 08:32:52;;;;;;;42.23;21.33;;;;;;;-145.18;100.00;47648.91;4949436;28;20035;-62
2022/03/04 08:35:18;;;;;;;38.65;20.25;;;;;;;-145.18;100.00;47650.88;4949582;28;20039;-62
2022/03/04 08:37:43;;;;;;;39.00;19.50;;;;;;;-145.18;100.00;47637.19;4949624;28;20098;-62
2022/03/04 08:40:10;;;;;;;39.33;20.30;;;;;;;-145.18;100.00;47639.13;4949090;28;20043;-63
2022/03/04 08:42:37;;;;;;;39.33;19.38;;;;;;;-145.18;100.00;47629.38;4950144;28;20415;-62
2022/03/04 08:45:03;;;;;;;38.17;19.65;;;;;;;-145.18;100.00;47613.75;4949341;28;20043;-62
2022/03/04 08:47:29;;;;;;;41.90;21.03;;;;;;;-145.18;100.00;47584.44;4949602;28;20067;-62
2022/03/04 08:49:54;;;;;;;39.97;20.97;;;;;;;-145.18;100.00;47611.78;4948856;28;20035;-62
2022/03/04 08:52:20;;;;;;;43.70;21.83;;;;;;;-145.18;100.00;47605.94;4949578;28;20101;-62
2022/03/04 08:54:45;;;;;;;39.70;20.50;;;;;;;-145.18;100.00;47566.84;4949332;28;20503;-62
2022/03/04 08:57:10;;;;;;;41.43;20.47;;;;;;;-145.18;100.00;47574.66;4933033;28;20047;-62
2022/03/04 08:59:36;;;;;;;38.47;19.00;;;;;;;-145.18;100.00;47553.16;4948583;28;20429;-62
2022/03/04 09:02:02;;;;;;;36.97;19.33;;;;;;;-145.18;100.00;47516.06;4949119;28;20658;-62
2022/03/04 09:04:27;;;;;;;34.90;18.83;;;;;;;-145.18;100.00;47553.16;4948748;28;20051;-62
2022/03/04 09:06:53;;;;;;;35.07;19.27;;;;;;;-145.18;100.00;47541.44;4949242;28;20035;-62
2022/03/04 09:09:18;;;;;;;38.17;19.90;;;;;;;-145.18;100.00;47545.34;4948861;28;20051;-62
2022/03/04 09:11:44;;;;;;;37.97;18.87;;;;;;;-145.18;100.00;47516.06;4949688;28;20055;-62
2022/03/04 09:14:09;;;;;;;40.80;19.80;;;;;;;-145.18;100.00;47527.78;4948511;28;20054;-62
2022/03/04 09:16:35;;;;;;;36.43;18.90;;;;;;;-145.18;100.00;47537.53;4949214;28;20344;-62
2022/03/04 09:19:00;;;;;;;38.63;19.77;;;;;;;-145.18;100.00;47518.00;4948718;28;20043;-62
2022/03/04 09:21:26;;;;;;;29.77;17.67;;;;;;;-145.18;100.00;47523.88;4949185;28;20300;-62
2022/03/04 09:23:53;;;;;;;34.60;18.17;;;;;;;-145.18;100.00;47516.06;4948543;28;20035;-63
2022/03/04 09:26:18;;;;;;;35.28;19.35;;;;;;;-145.18;100.00;47490.66;4949946;28;20041;-62
2022/03/04 09:28:44;;;;;;;35.40;19.60;;;;;;;-145.18;100.00;47498.47;4949006;28;20122;-62
2022/03/04 09:31:09;;;;;;;36.07;18.97;;;;;;;-145.18;100.00;47496.50;4931834;28;20036;-62
2022/03/04 09:33:35;;;;;;;35.87;19.70;;;;;;;-145.18;100.00;47502.38;4948627;28;20047;-62
2022/03/04 09:36:02;;;;;;;38.30;20.33;;;;;;;-145.18;100.00;47490.66;4948933;28;20415;-62
2022/03/04 09:38:28;;;;;;;38.28;17.70;;;;;;;-145.18;100.00;47471.13;4948916;28;20050;-63
2022/03/04 09:40:54;;;;;;;36.17;18.08;;;;;;;-145.18;100.00;47457.44;4948376;28;20072;-63
2022/03/04 09:43:22;;;;;;;36.43;20.50;;;;;;;-145.18;100.00;47463.31;4949236;28;20632;-62
2022/03/04 09:45:49;;;;;;;34.07;19.33;;;;;;;-145.18;100.00;47451.56;4932011;28;20051;-61
2022/03/04 09:48:16;;;;;;;44.53;19.30;;;;;;;-145.18;100.00;47455.47;4948928;28;20286;-62
2022/03/04 09:50:46;;;;;;;38.27;18.97;;;;;;;-145.18;100.00;47469.16;4948934;28;20348;-62
2022/03/04 09:53:13;;;;;;;36.47;18.00;;;;;;;-145.18;100.00;47465.25;4948658;28;20295;-62
2022/03/04 09:55:39;;;;;;;36.07;18.30;;;;;;;-145.18;100.00;47457.44;4948698;28;20294;-62
2022/03/04 09:58:16;;;;;;;34.10;18.23;;;;;;;-145.18;100.00;47439.84;4931429;28;20270;-62
2022/03/04 10:00:43;;;;;;;33.87;18.13;;;;;;;-145.18;100.00;47432.03;4948656;28;20341;-62
2022/03/04 10:03:42;;;;;;;35.50;18.63;;;;;;;-145.18;100.00;47430.09;4948384;28;20313;-62
2022/03/04 10:06:07;;;;;;;36.13;19.43;;;;;;;-145.18;100.00;47439.84;4948795;28;20333;-61
2022/03/04 10:08:40;;;;;;;31.97;18.03;;;;;;;-145.18;100.00;47430.09;4948496;28;20766;-62
2022/03/04 10:11:06;;;;;;;34.30;18.50;;;;;;;-145.18;100.00;47416.41;4949301;28;20042;-62
2022/03/04 10:13:44;;;;;;;33.87;18.03;;;;;;;-145.18;100.00;47418.38;4952092;28;20266;-62
2022/03/04 10:16:11;;;;;;;36.67;18.47;;;;;;;-145.18;100.00;47412.50;4951881;28;20043;-62
2022/03/04 10:18:36;;;;;;;31.73;18.40;;;;;;;-145.18;100.00;47414.47;4951687;28;20309;-62
2022/03/04 10:21:02;;;;;;;31.80;18.37;;;;;;;-145.18;100.00;47400.78;4951953;28;20753;-62
2022/03/04 10:23:28;;;;;;;30.43;18.60;;;;;;;-145.18;100.00;47394.91;4951793;28;20091;-62
2022/03/04 10:25:58;;;;;;;32.37;17.57;;;;;;;-145.18;100.00;47379.28;4951893;28;20484;-63
2022/03/04 10:28:27;;;;;;;32.93;18.43;;;;;;;-145.18;100.00;47377.34;4951581;28;20768;-62
2022/03/04 10:30:55;;;;;;;33.73;18.47;;;;;;;-145.18;100.00;47373.44;4951600;28;20261;-63
2022/03/04 10:33:22;;;;;;;37.33;18.33;;;;;;;-145.18;100.00;47365.63;4951915;28;20290;-63
2022/03/04 10:36:11;;;;;;;34.60;18.53;;;;;;;-145.18;100.00;47381.25;4952434;28;20258;-62
2022/03/04 10:38:38;;;;;;;39.63;18.33;;;;;;;-145.18;100.00;47363.66;4951561;28;20277;-62
2022/03/04 10:41:29;;;;;;;33.87;18.47;;;;;;;-145.18;100.00;47367.56;4951701;28;20274;-62
2022/03/04 10:43:56;;;;;;;32.90;17.77;;;;;;;-145.18;100.00;47371.47;4951047;28;20365;-62
2022/03/04 10:46:22;;;;;;;28.07;17.17;;;;;;;-145.18;100.00;47375.38;4951816;28;20266;-62
2022/03/04 10:48:57;;;;;;;31.13;18.00;;;;;;;-145.18;100.00;47375.38;4951353;28;20916;-63
2022/03/04 10:51:39;;;;;;;32.97;18.17;;;;;;;-145.18;100.00;47365.63;4934220;28;20603;-62